createdAt,value
2022-08-14T00:02:03.156Z,21.87
2022-08-14T00:04:42.044Z,21.79
2022-08-14T00:07:13.970Z,21.80
2022-08-14T00:10:01.608Z,21.85
2022-08-14T00:12:37.795Z,21.80
2022-08-14T00:15:24.130Z,21.81
2022-08-14T00:17:53.237Z,21.70
2022-08-14T00:20:31.096Z,21.65
2022-08-14T00:23:14.427Z,21.53
2022-08-14T00:25:54.086Z,21.50
2022-08-14T00:28:35.230Z,21.52
2022-08-14T00:31:02.894Z,21.47
2022-08-14T00:33:49.224Z,21.47
2022-08-14T00:36:37.179Z,21.43
2022-08-14T00:39:06.445Z,21.43
2022-08-14T00:41:33.743Z,21.47
2022-08-14T00:44:00.543Z,21.52
2022-08-14T00:46:32.660Z,21.44
2022-08-14T00:49:00.759Z,21.38
2022-08-14T00:51:37.691Z,21.32
2022-08-14T00:54:11.239Z,21.30
2022-08-14T00:56:50.384Z,21.26
2022-08-14T00:59:17.325Z,21.20
2022-08-14T01:01:45.431Z,21.18
2022-08-14T01:04:50.964Z,21.10
2022-08-14T01:07:00.803Z,21.08
2022-08-14T01:09:31.811Z,21.10
2022-08-14T01:12:02.852Z,21.00
2022-08-14T01:14:30.160Z,20.97
2022-08-14T01:16:57.027Z,20.89
2022-08-14T01:19:44.854Z,20.81
2022-08-14T01:22:13.496Z,20.82
2022-08-14T01:24:47.069Z,20.74
2022-08-14T01:27:19.544Z,20.78
2022-08-14T01:29:58.356Z,20.71
2022-08-14T01:32:27.803Z,20.60
2022-08-14T01:35:17.358Z,20.54
2022-08-14T01:37:56.079Z,20.54
2022-08-14T01:40:25.391Z,20.56
2022-08-14T01:42:59.345Z,20.66
2022-08-14T01:45:26.496Z,20.93
2022-08-14T01:48:03.687Z,20.86
2022-08-14T01:50:30.885Z,20.88
2022-08-14T01:53:01.495Z,20.79
2022-08-14T01:55:32.195Z,20.69
2022-08-14T01:58:02.066Z,20.58
2022-08-14T02:00:48.075Z,20.50
2022-08-14T02:03:16.086Z,20.46
2022-08-14T02:05:43.420Z,20.35
2022-08-14T02:08:10.726Z,20.32
2022-08-14T02:10:46.353Z,20.34
2022-08-14T02:13:16.050Z,20.29
2022-08-14T02:15:44.102Z,20.28
2022-08-14T02:18:11.754Z,20.26
2022-08-14T02:20:41.868Z,20.24
2022-08-14T02:23:08.986Z,20.21
2022-08-14T02:25:37.026Z,20.22
2022-08-14T02:28:25.515Z,20.24
2022-08-14T02:30:52.899Z,20.19
2022-08-14T02:33:21.191Z,20.13
2022-08-14T02:35:53.485Z,20.20
2022-08-14T02:38:35.046Z,20.15
2022-08-14T02:41:02.441Z,20.12
2022-08-14T02:43:46.586Z,20.06
2022-08-14T02:46:20.559Z,20.05
2022-08-14T02:49:01.842Z,19.99
2022-08-14T02:51:36.553Z,19.92
2022-08-14T02:54:07.188Z,19.95
2022-08-14T02:57:15.859Z,19.92
2022-08-14T02:59:24.704Z,19.84
2022-08-14T03:01:57.309Z,19.81
2022-08-14T03:04:26.395Z,19.65
2022-08-14T03:07:06.275Z,19.53
2022-08-14T03:09:42.182Z,19.44
2022-08-14T03:12:30.803Z,19.41
2022-08-14T03:14:59.056Z,19.34
2022-08-14T03:17:26.804Z,19.26
2022-08-14T03:19:59.792Z,19.17
2022-08-14T03:22:27.784Z,19.10
2022-08-14T03:24:57.140Z,19.05
2022-08-14T03:27:26.380Z,18.99
2022-08-14T03:29:53.094Z,18.88
2022-08-14T03:32:20.299Z,18.78
2022-08-14T03:34:58.615Z,18.73
2022-08-14T03:37:50.798Z,18.62
2022-08-14T03:40:17.674Z,18.50
2022-08-14T03:42:45.321Z,18.37
2022-08-14T03:45:18.801Z,18.28
2022-08-14T03:48:02.068Z,18.21
2022-08-14T03:50:31.633Z,18.13
2022-08-14T03:53:02.738Z,18.12
2022-08-14T03:55:30.195Z,18.07
2022-08-14T03:57:57.243Z,18.02
2022-08-14T04:00:40.342Z,17.95
2022-08-14T04:03:10.692Z,17.86
2022-08-14T04:05:42.768Z,17.80
2022-08-14T04:08:23.052Z,17.74
2022-08-14T04:10:57.423Z,17.60
2022-08-14T04:13:24.954Z,17.55
2022-08-14T04:15:56.077Z,17.44
2022-08-14T04:18:30.468Z,17.37
2022-08-14T04:20:58.066Z,17.28
2022-08-14T04:23:29.758Z,17.29
2022-08-14T04:26:14.303Z,17.32
2022-08-14T04:29:07.368Z,17.32
2022-08-14T04:32:58.330Z,17.31
2022-08-14T04:34:24.060Z,17.32
2022-08-14T04:37:13.044Z,17.36
2022-08-14T04:39:58.064Z,17.34
2022-08-14T04:42:47.392Z,17.34
2022-08-14T04:45:25.343Z,17.34
2022-08-14T04:48:38.738Z,17.32
2022-08-14T04:51:04.240Z,17.33
2022-08-14T04:53:34.682Z,17.36
2022-08-14T04:56:06.003Z,17.37
2022-08-14T04:58:37.542Z,17.43
2022-08-14T05:01:21.487Z,17.47
2022-08-14T05:03:49.562Z,17.50
2022-08-14T05:06:38.558Z,17.49
2022-08-14T05:09:05.309Z,17.44
2022-08-14T05:11:33.354Z,17.36
2022-08-14T05:14:42.899Z,17.42
2022-08-14T05:16:52.081Z,18.10
2022-08-14T05:19:26.741Z,20.18
2022-08-14T05:22:15.635Z,23.12
2022-08-14T05:24:45.144Z,26.02
2022-08-14T05:27:11.786Z,27.75
2022-08-14T05:29:38.224Z,28.90
2022-08-14T05:32:07.482Z,29.03
2022-08-14T05:34:34.343Z,29.95
2022-08-14T05:37:03.175Z,29.88
2022-08-14T05:39:31.559Z,29.04
2022-08-14T05:42:00.625Z,28.11
2022-08-14T05:44:30.785Z,26.81
2022-08-14T05:46:58.518Z,24.99
2022-08-14T05:49:26.211Z,24.43
2022-08-14T05:52:01.768Z,23.39
2022-08-14T05:54:35.393Z,22.76
2022-08-14T05:57:02.628Z,22.43
2022-08-14T05:59:36.805Z,21.91
2022-08-14T06:02:10.542Z,21.24
2022-08-14T06:04:38.717Z,20.96
2022-08-14T06:07:05.761Z,20.74
2022-08-14T06:09:35.397Z,20.61
2022-08-14T06:12:03.227Z,20.55
2022-08-14T06:14:31.181Z,20.45
2022-08-14T06:16:57.632Z,20.42
2022-08-14T06:19:24.140Z,20.42
2022-08-14T06:21:58.290Z,20.44
2022-08-14T06:24:26.263Z,20.47
2022-08-14T06:26:56.662Z,20.58
2022-08-14T06:29:32.431Z,20.72
2022-08-14T06:32:37.895Z,20.84
2022-08-14T06:35:03.457Z,21.09
2022-08-14T06:37:45.192Z,21.30
2022-08-14T06:40:25.668Z,21.47
2022-08-14T06:43:00.408Z,21.68
2022-08-14T06:45:30.126Z,21.85
2022-08-14T06:47:58.801Z,21.98
2022-08-14T06:50:28.716Z,22.18
2022-08-14T06:52:58.539Z,22.29
2022-08-14T06:55:27.625Z,22.39
2022-08-14T06:57:55.275Z,22.55
2022-08-14T07:00:30.626Z,22.66
2022-08-14T07:03:19.481Z,22.76
2022-08-14T07:05:55.865Z,22.93
2022-08-14T07:08:31.490Z,22.97
2022-08-14T07:11:03.883Z,23.05
2022-08-14T07:13:31.278Z,23.11
2022-08-14T07:16:00.462Z,23.14
2022-08-14T07:18:34.886Z,23.12
2022-08-14T07:21:03.294Z,23.14
2022-08-14T07:23:31.098Z,23.30
2022-08-14T07:25:59.641Z,23.30
2022-08-14T07:28:35.786Z,23.44
2022-08-14T07:31:06.158Z,23.62
2022-08-14T07:33:50.742Z,23.77
2022-08-14T07:36:27.862Z,23.82
2022-08-14T07:39:02.777Z,23.86
2022-08-14T07:41:33.690Z,24.02
2022-08-14T07:44:29.283Z,24.07
2022-08-14T07:46:49.874Z,24.07
2022-08-14T07:49:17.756Z,24.30
2022-08-14T07:51:45.422Z,24.46
2022-08-14T07:54:12.344Z,24.55
2022-08-14T07:56:48.312Z,24.58
2022-08-14T07:59:18.518Z,24.57
2022-08-14T08:01:48.184Z,24.56
2022-08-14T08:04:24.327Z,24.65
2022-08-14T08:06:52.938Z,24.75
2022-08-14T08:09:25.075Z,24.92
2022-08-14T08:12:00.685Z,25.01
2022-08-14T08:14:55.789Z,25.17
2022-08-14T08:17:23.405Z,25.23
2022-08-14T08:19:51.618Z,25.35
2022-08-14T08:22:21.104Z,25.57
2022-08-14T08:24:50.417Z,25.69
2022-08-14T08:27:19.783Z,25.81
2022-08-14T08:29:50.814Z,25.83
2022-08-14T08:32:18.511Z,25.89
2022-08-14T08:34:46.926Z,26.11
2022-08-14T08:37:14.941Z,26.09
2022-08-14T08:40:03.447Z,26.11
2022-08-14T08:42:41.183Z,26.31
2022-08-14T08:45:17.357Z,26.47
2022-08-14T08:47:45.374Z,26.55
2022-08-14T08:50:31.824Z,26.55
2022-08-14T08:53:09.999Z,26.63
2022-08-14T08:55:43.823Z,26.80
2022-08-14T08:58:20.098Z,26.93
2022-08-14T09:00:55.398Z,26.88
2022-08-14T09:03:25.638Z,27.04
2022-08-14T09:06:03.763Z,27.17
2022-08-14T09:08:33.401Z,27.18
2022-08-14T09:11:18.820Z,27.33
2022-08-14T09:13:49.505Z,27.40
2022-08-14T09:16:21.070Z,27.56
2022-08-14T09:18:48.850Z,27.62
2022-08-14T09:21:16.403Z,27.71
2022-08-14T09:24:26.361Z,27.76
2022-08-14T09:26:29.915Z,27.82
2022-08-14T09:28:59.589Z,28.05
2022-08-14T09:31:28.697Z,28.05
2022-08-14T09:34:27.389Z,28.31
2022-08-14T09:37:16.748Z,28.30
2022-08-14T09:40:20.883Z,28.33
2022-08-14T09:43:24.838Z,28.39
2022-08-14T09:45:53.853Z,28.41
2022-08-14T09:48:29.896Z,28.43
2022-08-14T09:54:17.884Z,28.87
2022-08-14T09:56:32.782Z,29.05
2022-08-14T09:59:15.909Z,29.21
2022-08-14T10:01:46.165Z,29.24
2022-08-14T10:04:33.764Z,29.43
2022-08-14T10:07:04.169Z,29.53
2022-08-14T10:09:33.427Z,29.74
2022-08-14T10:12:04.439Z,29.79
2022-08-14T10:14:37.127Z,29.63
2022-08-14T10:17:07.119Z,29.57
2022-08-14T10:19:37.131Z,29.50
2022-08-14T10:23:12.191Z,29.95
2022-08-14T10:24:55.058Z,30.41
2022-08-14T10:27:24.430Z,30.71
2022-08-14T10:29:54.379Z,30.76
2022-08-14T10:32:29.272Z,30.59
2022-08-14T10:35:13.286Z,30.36
2022-08-14T10:37:49.912Z,30.59
2022-08-14T10:40:37.530Z,30.79
2022-08-14T10:43:26.633Z,30.80
2022-08-14T10:46:21.679Z,30.93
2022-08-14T10:49:04.072Z,31.12
2022-08-14T10:51:36.264Z,31.24
2022-08-14T10:54:25.944Z,30.94
2022-08-14T10:56:55.965Z,31.27
2022-08-14T10:59:31.342Z,30.94
2022-08-14T11:02:17.683Z,31.17
2022-08-14T11:05:08.095Z,31.28
2022-08-14T11:07:39.835Z,31.49
2022-08-14T11:10:13.795Z,31.84
2022-08-14T11:12:49.571Z,31.92
2022-08-14T11:15:18.980Z,31.90
2022-08-14T11:17:47.224Z,31.78
2022-08-14T11:20:18.548Z,32.08
2022-08-14T11:22:52.565Z,32.20
2022-08-14T11:25:44.002Z,32.15
2022-08-14T11:28:14.839Z,32.25
2022-08-14T11:30:53.279Z,32.50
2022-08-14T11:33:29.116Z,32.12
2022-08-14T11:35:59.646Z,31.92
2022-08-14T11:38:29.059Z,31.82
2022-08-14T11:40:58.548Z,31.46
2022-08-14T11:43:29.630Z,31.40
2022-08-14T11:45:57.659Z,31.77
2022-08-14T11:49:02.687Z,32.13
2022-08-14T11:51:17.836Z,32.27
2022-08-14T11:53:52.043Z,32.34
2022-08-14T11:56:19.150Z,32.57
2022-08-14T11:58:54.851Z,32.60
2022-08-14T12:01:30.824Z,32.61
2022-08-14T12:04:21.624Z,32.62
2022-08-14T12:07:00.697Z,32.82
2022-08-14T12:09:32.220Z,32.18
2022-08-14T12:11:59.020Z,31.67
2022-08-14T12:14:31.157Z,31.76
2022-08-14T12:17:09.416Z,32.24
2022-08-14T12:19:53.917Z,32.45
2022-08-14T12:22:33.981Z,32.34
2022-08-14T12:25:00.840Z,32.14
2022-08-14T12:27:51.913Z,32.25
2022-08-14T12:30:40.063Z,32.61
2022-08-14T12:33:31.050Z,32.80
2022-08-14T12:36:06.151Z,32.94
2022-08-14T12:38:44.051Z,33.10
2022-08-14T12:41:21.354Z,32.96
2022-08-14T12:43:56.397Z,33.03
2022-08-14T12:46:33.605Z,33.25
2022-08-14T12:49:08.823Z,32.93
2022-08-14T12:51:36.157Z,32.96
2022-08-14T12:54:18.596Z,32.83
2022-08-14T12:57:16.996Z,32.75
2022-08-14T12:59:46.234Z,32.20
2022-08-14T13:02:26.992Z,32.01
2022-08-14T13:04:58.257Z,32.31
2022-08-14T13:07:32.570Z,32.52
2022-08-14T13:10:00.179Z,32.86
2022-08-14T13:12:33.468Z,33.10
2022-08-14T13:15:12.440Z,33.23
2022-08-14T13:17:44.122Z,33.52
2022-08-14T13:20:24.871Z,33.71
2022-08-14T13:22:54.875Z,33.49
2022-08-14T13:25:25.486Z,33.60
2022-08-14T13:27:55.392Z,33.79
2022-08-14T13:30:27.373Z,33.86
2022-08-14T13:32:58.006Z,33.79
2022-08-14T13:35:25.775Z,33.90
2022-08-14T13:37:53.479Z,33.96
2022-08-14T13:40:26.677Z,33.78
2022-08-14T13:42:57.332Z,33.84
2022-08-14T13:45:33.590Z,33.94
2022-08-14T13:48:19.203Z,34.01
2022-08-14T13:51:01.569Z,34.10
2022-08-14T13:53:33.615Z,34.10
2022-08-14T13:56:01.482Z,34.09
2022-08-14T13:58:34.564Z,34.09
2022-08-14T14:01:02.664Z,34.10
2022-08-14T14:03:35.320Z,33.96
2022-08-14T14:06:03.217Z,34.04
2022-08-14T14:08:45.925Z,34.29
2022-08-14T14:11:17.990Z,34.42
2022-08-14T14:13:46.598Z,34.31
2022-08-14T14:16:15.283Z,34.42
2022-08-14T14:18:55.981Z,34.05
2022-08-14T14:21:24.395Z,33.50
2022-08-14T14:23:53.695Z,32.89
2022-08-14T14:26:24.090Z,32.59
2022-08-14T14:28:57.642Z,32.49
2022-08-14T14:31:30.191Z,32.79
2022-08-14T14:34:07.577Z,33.21
2022-08-14T14:36:50.240Z,33.10
2022-08-14T14:39:23.215Z,33.41
2022-08-14T14:41:56.122Z,33.70
2022-08-14T14:44:25.551Z,33.75
2022-08-14T14:46:53.588Z,34.07
2022-08-14T14:49:31.704Z,33.96
2022-08-14T14:52:16.829Z,34.18
2022-08-14T14:54:50.208Z,34.27
2022-08-14T14:57:18.580Z,34.28
2022-08-14T14:59:45.865Z,34.24
2022-08-14T15:02:34.135Z,34.31
2022-08-14T15:05:05.047Z,34.43
2022-08-14T15:07:32.346Z,34.30
2022-08-14T15:09:59.977Z,33.70
2022-08-14T15:12:34.633Z,33.54
2022-08-14T15:15:14.783Z,33.50
2022-08-14T15:17:43.158Z,33.52
2022-08-14T15:20:17.549Z,33.16
2022-08-14T15:23:08.247Z,32.87
2022-08-14T15:25:40.463Z,32.53
2022-08-14T15:28:11.462Z,32.19
2022-08-14T15:30:41.601Z,32.03
2022-08-14T15:33:08.921Z,31.88
2022-08-14T15:35:35.847Z,31.70
2022-08-14T15:38:11.324Z,31.64
2022-08-14T15:40:44.170Z,31.53
2022-08-14T15:43:18.226Z,31.43
2022-08-14T15:45:45.134Z,31.45
2022-08-14T15:48:22.068Z,31.44
2022-08-14T15:50:50.966Z,31.53
2022-08-14T15:53:18.766Z,31.66
2022-08-14T15:55:46.473Z,31.60
2022-08-14T15:58:13.211Z,31.54
2022-08-14T16:01:00.236Z,31.49
2022-08-14T16:03:36.558Z,31.72
2022-08-14T16:06:15.235Z,31.80
2022-08-14T16:08:46.842Z,32.02
2022-08-14T16:11:17.626Z,32.21
2022-08-14T16:13:45.613Z,32.40
2022-08-14T16:16:51.082Z,32.03
2022-08-14T16:19:09.503Z,31.77
2022-08-14T16:21:39.668Z,31.62
2022-08-14T16:24:06.504Z,31.54
2022-08-14T16:26:35.500Z,31.38
2022-08-14T16:29:04.664Z,31.26
2022-08-14T16:31:35.628Z,31.18
2022-08-14T16:34:44.485Z,31.18
2022-08-14T16:36:51.195Z,31.28
2022-08-14T16:39:18.066Z,31.32
2022-08-14T16:41:45.622Z,31.41
2022-08-14T16:44:33.865Z,31.44
2022-08-14T16:47:02.665Z,31.33
2022-08-14T16:50:02.926Z,31.12
2022-08-14T16:52:25.642Z,31.00
2022-08-14T16:55:11.209Z,30.93
2022-08-14T16:57:55.015Z,30.82
2022-08-14T17:00:43.642Z,30.85
2022-08-14T17:03:12.227Z,30.91
2022-08-14T17:05:41.648Z,30.77
2022-08-14T17:08:41.437Z,30.64
2022-08-14T17:11:00.886Z,30.70
2022-08-14T17:13:58.518Z,30.65
2022-08-14T17:16:24.877Z,30.65
2022-08-14T17:19:00.728Z,30.65
2022-08-14T17:21:38.078Z,30.68
2022-08-14T17:24:56.084Z,30.54
2022-08-14T17:26:57.327Z,30.40
2022-08-14T17:29:32.833Z,30.28
2022-08-14T17:32:28.384Z,30.22
2022-08-14T17:34:57.686Z,30.07
2022-08-14T17:37:36.236Z,29.96
2022-08-14T17:40:14.933Z,29.88
2022-08-14T17:45:41.685Z,29.67
2022-08-14T17:49:10.096Z,29.59
2022-08-14T17:51:23.865Z,29.45
2022-08-14T17:54:02.380Z,29.20
2022-08-14T17:56:32.375Z,29.03
2022-08-14T17:59:06.089Z,28.80
2022-08-14T18:01:40.865Z,28.64
2022-08-14T18:04:24.754Z,28.49
2022-08-14T18:07:08.969Z,28.32
2022-08-14T18:09:57.219Z,28.08
2022-08-14T18:12:36.384Z,27.83
2022-08-14T18:15:14.666Z,27.68
2022-08-14T18:17:52.844Z,27.50
2022-08-14T18:21:24.337Z,27.31
2022-08-14T18:23:10.421Z,27.12
2022-08-14T18:25:58.722Z,26.99
2022-08-14T18:28:48.164Z,26.85
2022-08-14T18:31:21.059Z,26.57
2022-08-14T18:33:57.269Z,26.43
2022-08-14T18:36:48.658Z,26.19
2022-08-14T18:39:24.648Z,26.03
2022-08-14T18:41:54.530Z,25.92
2022-08-14T18:44:49.198Z,25.77
2022-08-14T18:47:19.918Z,25.67
2022-08-14T18:49:55.391Z,25.46
2022-08-14T18:52:34.659Z,25.26
2022-08-14T18:55:25.478Z,25.05
2022-08-14T18:57:57.970Z,24.81
2022-08-14T19:00:32.411Z,24.70
2022-08-14T19:03:04.102Z,24.59
2022-08-14T19:05:47.146Z,24.52
2022-08-14T19:08:24.861Z,24.40
2022-08-14T19:10:59.382Z,24.30
2022-08-14T19:13:44.500Z,24.25
2022-08-14T19:16:19.011Z,24.21
2022-08-14T19:18:51.742Z,24.06
2022-08-14T19:21:32.446Z,23.93
2022-08-14T19:24:27.462Z,23.78
2022-08-14T19:27:19.096Z,23.59
2022-08-14T19:29:51.448Z,23.40
2022-08-14T19:32:38.918Z,23.20
2022-08-14T19:35:48.592Z,23.16
2022-08-14T19:38:48.066Z,22.99
2022-08-14T19:41:16.524Z,22.82
2022-08-14T19:43:55.600Z,22.77
2022-08-14T19:46:39.134Z,22.69
2022-08-14T19:49:14.048Z,22.60
2022-08-14T19:51:48.974Z,22.57
2022-08-14T19:54:16.128Z,22.48
2022-08-14T19:56:45.807Z,22.40
2022-08-14T19:59:19.222Z,22.33
2022-08-14T20:01:50.927Z,22.27
2022-08-14T20:04:47.054Z,22.11
2022-08-14T20:07:59.911Z,21.95
2022-08-14T20:11:03.674Z,21.85
2022-08-14T20:13:14.148Z,21.80
2022-08-14T20:15:47.243Z,21.76
2022-08-14T20:18:46.028Z,21.71
2022-08-14T20:21:05.206Z,21.58
2022-08-14T20:23:37.993Z,21.50
2022-08-14T20:26:31.955Z,21.50
2022-08-14T20:29:06.874Z,21.44
2022-08-14T20:31:36.940Z,21.39
2022-08-14T20:34:25.190Z,21.32
2022-08-14T20:37:11.572Z,21.27
2022-08-14T20:39:53.650Z,21.19
2022-08-14T20:42:43.907Z,21.03
2022-08-14T20:45:18.925Z,20.95
2022-08-14T20:47:58.433Z,20.88
2022-08-14T20:50:29.559Z,20.82
2022-08-14T20:53:05.703Z,20.83
2022-08-14T20:55:41.721Z,20.78
2022-08-14T20:58:43.420Z,20.75
2022-08-14T21:01:17.559Z,20.72
2022-08-14T21:03:57.028Z,20.73
2022-08-14T21:06:29.530Z,20.64
2022-08-14T21:09:02.529Z,20.60
2022-08-14T21:11:31.450Z,20.56
2022-08-14T21:14:26.247Z,20.48
2022-08-14T21:16:58.358Z,20.43
2022-08-14T21:19:26.373Z,20.43
2022-08-14T21:21:54.700Z,20.43
2022-08-14T21:24:47.243Z,20.42
2022-08-14T21:27:12.847Z,20.37
2022-08-14T21:29:54.250Z,20.32
2022-08-14T21:32:34.512Z,20.30
2022-08-14T21:35:08.260Z,20.31
2022-08-14T21:37:47.738Z,20.24
2022-08-14T21:40:40.908Z,20.22
2022-08-14T21:43:07.351Z,20.21
2022-08-14T21:45:51.690Z,20.18
2022-08-14T21:48:21.361Z,20.16
2022-08-14T21:51:01.397Z,20.18
2022-08-14T21:53:58.358Z,20.17
2022-08-14T21:56:38.326Z,20.10
2022-08-14T21:59:18.112Z,20.01
2022-08-14T22:02:00.078Z,19.89
2022-08-14T22:04:40.584Z,19.86
2022-08-14T22:07:13.051Z,19.84
2022-08-14T22:09:44.783Z,19.86
2022-08-14T22:12:57.750Z,19.87
2022-08-14T22:15:00.160Z,19.88
2022-08-14T22:17:32.386Z,19.89
2022-08-14T22:20:02.567Z,19.90
2022-08-14T22:22:31.624Z,19.94
2022-08-14T22:25:00.261Z,19.93
2022-08-14T22:27:32.146Z,19.90
2022-08-14T22:30:00.536Z,19.86
2022-08-14T22:32:56.995Z,19.81
2022-08-14T22:35:15.723Z,19.79
2022-08-14T22:37:44.521Z,19.81
2022-08-14T22:40:51.723Z,19.81
2022-08-14T22:43:08.416Z,19.81
2022-08-14T22:45:37.693Z,19.79
2022-08-14T22:48:10.822Z,19.81
2022-08-14T22:50:48.758Z,19.78
2022-08-14T22:53:15.976Z,19.79
2022-08-14T22:55:43.191Z,19.76
2022-08-14T22:58:11.328Z,19.77
2022-08-14T23:00:45.046Z,19.70
2022-08-14T23:03:17.155Z,19.70
2022-08-14T23:05:52.537Z,19.70
2022-08-14T23:08:57.756Z,19.68
2022-08-14T23:11:10.219Z,19.64
2022-08-14T23:13:39.163Z,19.62
2022-08-14T23:16:06.718Z,19.63
2022-08-14T23:18:34.479Z,19.60
2022-08-14T23:21:01.424Z,19.67
2022-08-14T23:23:27.957Z,19.65
2022-08-14T23:26:00.411Z,19.63
2022-08-14T23:28:57.113Z,19.59
2022-08-14T23:31:34.426Z,19.58
2022-08-14T23:34:06.946Z,19.57
2022-08-14T23:36:37.884Z,19.47
2022-08-14T23:39:21.021Z,19.36
2022-08-14T23:41:52.561Z,19.35
2022-08-14T23:44:22.381Z,19.37
2022-08-14T23:46:49.515Z,19.37
2022-08-14T23:49:21.315Z,19.39
2022-08-14T23:51:48.995Z,19.43
2022-08-14T23:54:47.931Z,19.49
2022-08-14T23:57:16.266Z,19.50
2022-08-14T23:59:54.624Z,19.52
